sensor_id;sensor_type;location;lat;lon;timestamp;pressure;altitude;pressure_sealevel;temperature;humidity
50550;BME280;36505;52.512;13.460;2022-11-15T00:01:16;101028.03;;;4.62;98.53
50550;BME280;36505;52.512;13.460;2022-11-15T00:03:42;101024.91;;;4.65;99.10
50550;BME280;36505;52.512;13.460;2022-11-15T00:06:08;101027.19;;;4.61;98.80
50550;BME280;36505;52.512;13.460;2022-11-15T00:08:34;101028.81;;;4.56;99.09
50550;BME280;36505;52.512;13.460;2022-11-15T00:11:01;101023.31;;;4.43;99.31
50550;BME280;36505;52.512;13.460;2022-11-15T00:13:28;101026.03;;;4.43;99.29
50550;BME280;36505;52.512;13.460;2022-11-15T00:15:56;101021.63;;;4.42;99.66
50550;BME280;36505;52.512;13.460;2022-11-15T00:18:22;101025.19;;;4.42;99.38
50550;BME280;36505;52.512;13.460;2022-11-15T00:20:47;101017.06;;;4.42;99.30
50550;BME280;36505;52.512;13.460;2022-11-15T00:23:13;101004.09;;;4.44;99.55
50550;BME280;36505;52.512;13.460;2022-11-15T00:25:38;101006.81;;;4.44;99.46
50550;BME280;36505;52.512;13.460;2022-11-15T00:28:04;101006.59;;;4.39;99.58
50550;BME280;36505;52.512;13.460;2022-11-15T00:30:29;101000.09;;;4.33;99.82
50550;BME280;36505;52.512;13.460;2022-11-15T00:32:55;100991.31;;;4.31;100.00
50550;BME280;36505;52.512;13.460;2022-11-15T00:35:21;100999.06;;;4.34;100.00
50550;BME280;36505;52.512;13.460;2022-11-15T00:37:46;101000.09;;;4.33;99.84
50550;BME280;36505;52.512;13.460;2022-11-15T00:40:13;100971.41;;;4.18;100.00
50550;BME280;36505;52.512;13.460;2022-11-15T00:42:39;100993.59;;;4.28;100.00
50550;BME280;36505;52.512;13.460;2022-11-15T00:45:05;100989.38;;;4.25;100.00
50550;BME280;36505;52.512;13.460;2022-11-15T00:47:30;100977.91;;;4.23;100.00
50550;BME280;36505;52.512;13.460;2022-11-15T00:49:56;100987.13;;;4.29;100.00
50550;BME280;36505;52.512;13.460;2022-11-15T00:52:21;100980.22;;;4.26;100.00
50550;BME280;36505;52.512;13.460;2022-11-15T00:54:47;100986.28;;;4.28;100.00
50550;BME280;36505;52.512;13.460;2022-11-15T00:57:12;100979.84;;;4.29;100.00
50550;BME280;36505;52.512;13.460;2022-11-15T00:59:38;100980.22;;;4.26;99.93
50550;BME280;36505;52.512;13.460;2022-11-15T01:02:03;100970.59;;;4.24;100.00
50550;BME280;36505;52.512;13.460;2022-11-15T01:04:28;100982.50;;;4.23;100.00
50550;BME280;36505;52.512;13.460;2022-11-15T01:06:54;100973.53;;;4.22;100.00
50550;BME280;36505;52.512;13.460;2022-11-15T01:09:19;100967.00;;;4.17;100.00
50550;BME280;36505;52.512;13.460;2022-11-15T01:11:45;100971.84;;;4.21;100.00
50550;BME280;36505;52.512;13.460;2022-11-15T01:14:10;100974.56;;;4.21;100.00
50550;BME280;36505;52.512;13.460;2022-11-15T01:16:36;100967.28;;;4.22;100.00
50550;BME280;36505;52.512;13.460;2022-11-15T01:19:01;100957.41;;;4.14;100.00
50550;BME280;36505;52.512;13.460;2022-11-15T01:21:27;100968.13;;;4.22;100.00
50550;BME280;36505;52.512;13.460;2022-11-15T01:23:54;100953.69;;;4.15;100.00
50550;BME280;36505;52.512;13.460;2022-11-15T01:26:20;100964.56;;;4.22;100.00
50550;BME280;36505;52.512;13.460;2022-11-15T01:28:45;100963.06;;;4.19;100.00
50550;BME280;36505;52.512;13.460;2022-11-15T01:31:19;100964.94;;;4.19;100.00
50550;BME280;36505;52.512;13.460;2022-11-15T01:33:46;100949.53;;;4.19;100.00
50550;BME280;36505;52.512;13.460;2022-11-15T01:36:14;100941.38;;;4.19;100.00
50550;BME280;36505;52.512;13.460;2022-11-15T01:38:40;100942.63;;;4.17;99.88
50550;BME280;36505;52.512;13.460;2022-11-15T01:41:05;100935.09;;;4.12;99.95
50550;BME280;36505;52.512;13.460;2022-11-15T01:43:36;100938.88;;;4.18;99.92
50550;BME280;36505;52.512;13.460;2022-11-15T01:46:18;100935.53;;;4.16;99.88
50550;BME280;36505;52.512;13.460;2022-11-15T01:48:47;100940.56;;;4.19;99.73
50550;BME280;36505;52.512;13.460;2022-11-15T01:51:16;100931.38;;;4.20;99.66
50550;BME280;36505;52.512;13.460;2022-11-15T01:53:45;100925.31;;;4.18;99.64
50550;BME280;36505;52.512;13.460;2022-11-15T01:56:19;100914.66;;;4.16;99.88
50550;BME280;36505;52.512;13.460;2022-11-15T01:58:46;100912.59;;;4.18;99.58
50550;BME280;36505;52.512;13.460;2022-11-15T02:01:13;100913.63;;;4.17;99.40
50550;BME280;36505;52.512;13.460;2022-11-15T02:03:46;100906.94;;;4.13;99.64
50550;BME280;36505;52.512;13.460;2022-11-15T02:06:14;100906.31;;;4.11;99.86
50550;BME280;36505;52.512;13.460;2022-11-15T02:08:40;100901.91;;;4.10;100.00
50550;BME280;36505;52.512;13.460;2022-11-15T02:11:09;100898.31;;;4.03;100.00
50550;BME280;36505;52.512;13.460;2022-11-15T02:13:36;100901.06;;;4.10;100.00
50550;BME280;36505;52.512;13.460;2022-11-15T02:18:41;100902.53;;;4.06;100.00
50550;BME280;36505;52.512;13.460;2022-11-15T02:27:12;100901.03;;;4.03;100.00
50550;BME280;36505;52.512;13.460;2022-11-15T02:35:20;100900.47;;;4.08;100.00
50550;BME280;36505;52.512;13.460;2022-11-15T02:38:01;100913.34;;;4.06;100.00
50550;BME280;36505;52.512;13.460;2022-11-15T02:43:11;100899.81;;;4.06;100.00
50550;BME280;36505;52.512;13.460;2022-11-15T02:46:37;100898.13;;;4.05;100.00
50550;BME280;36505;52.512;13.460;2022-11-15T02:49:20;100894.38;;;4.06;100.00
50550;BME280;36505;52.512;13.460;2022-11-15T02:51:47;100893.56;;;4.05;100.00
50550;BME280;36505;52.512;13.460;2022-11-15T02:54:19;100886.44;;;4.04;100.00
50550;BME280;36505;52.512;13.460;2022-11-15T02:56:45;100877.50;;;4.04;100.00
50550;BME280;36505;52.512;13.460;2022-11-15T03:07:07;100878.31;;;4.04;100.00
50550;BME280;36505;52.512;13.460;2022-11-15T03:09:52;100880.84;;;4.06;99.97
50550;BME280;36505;52.512;13.460;2022-11-15T03:12:36;100886.44;;;4.04;99.84
50550;BME280;36505;52.512;13.460;2022-11-15T03:15:18;100881.84;;;3.98;100.00
50550;BME280;36505;52.512;13.460;2022-11-15T03:17:50;100885.56;;;3.97;100.00
50550;BME280;36505;52.512;13.460;2022-11-15T03:20:18;100874.97;;;3.95;100.00
50550;BME280;36505;52.512;13.460;2022-11-15T03:22:46;100877.84;;;3.94;100.00
50550;BME280;36505;52.512;13.460;2022-11-15T03:25:17;100875.16;;;3.94;100.00
50550;BME280;36505;52.512;13.460;2022-11-15T03:27:48;100873.47;;;3.93;100.00
50550;BME280;36505;52.512;13.460;2022-11-15T03:30:16;100879.13;;;3.98;99.85
50550;BME280;36505;52.512;13.460;2022-11-15T03:32:46;100877.84;;;3.94;99.60
50550;BME280;36505;52.512;13.460;2022-11-15T03:35:16;100875.53;;;3.91;99.69
50550;BME280;36505;52.512;13.460;2022-11-15T03:37:55;100878.66;;;3.88;99.75
50550;BME280;36505;52.512;13.460;2022-11-15T03:40:54;100876.13;;;3.86;100.00
50550;BME280;36505;52.512;13.460;2022-11-15T03:46:28;100891.34;;;3.87;99.87
50550;BME280;36505;52.512;13.460;2022-11-15T03:49:10;100869.50;;;3.89;99.77
50550;BME280;36505;52.512;13.460;2022-11-15T03:51:36;100865.50;;;3.85;99.72
50550;BME280;36505;52.512;13.460;2022-11-15T03:54:03;100867.16;;;3.86;99.83
50550;BME280;36505;52.512;13.460;2022-11-15T03:56:29;100872.19;;;3.89;99.76
50550;BME280;36505;52.512;13.460;2022-11-15T03:58:54;100867.41;;;3.91;99.22
50550;BME280;36505;52.512;13.460;2022-11-15T04:01:20;100861.56;;;3.87;99.17
50550;BME280;36505;52.512;13.460;2022-11-15T04:03:45;100852.78;;;3.85;99.23
50550;BME280;36505;52.512;13.460;2022-11-15T04:06:10;100863.47;;;3.93;98.97
50550;BME280;36505;52.512;13.460;2022-11-15T04:08:36;100867.84;;;3.94;98.65
50550;BME280;36505;52.512;13.460;2022-11-15T04:11:01;100860.31;;;3.90;98.85
50550;BME280;36505;52.512;13.460;2022-11-15T04:13:27;100854.00;;;3.83;98.85
50550;BME280;36505;52.512;13.460;2022-11-15T04:15:52;100859.88;;;3.86;99.14
50550;BME280;36505;52.512;13.460;2022-11-15T04:18:17;100855.88;;;3.82;99.49
50550;BME280;36505;52.512;13.460;2022-11-15T04:20:43;100856.53;;;3.84;99.22
50550;BME280;36505;52.512;13.460;2022-11-15T04:23:27;100848.59;;;3.83;99.43
50550;BME280;36505;52.512;13.460;2022-11-15T04:26:15;100841.03;;;3.72;99.77
50550;BME280;36505;52.512;13.460;2022-11-15T04:28:41;100856.47;;;3.78;99.71
50550;BME280;36505;52.512;13.460;2022-11-15T04:31:25;100849.59;;;3.75;99.69
50550;BME280;36505;52.512;13.460;2022-11-15T04:33:51;100851.47;;;3.75;99.71
50550;BME280;36505;52.512;13.460;2022-11-15T04:36:16;100849.38;;;3.77;99.71
50550;BME280;36505;52.512;13.460;2022-11-15T04:39:00;100849.38;;;3.77;99.95
50550;BME280;36505;52.512;13.460;2022-11-15T04:41:25;100843.97;;;3.77;99.83
50550;BME280;36505;52.512;13.460;2022-11-15T04:43:51;100840.00;;;3.73;99.66
50550;BME280;36505;52.512;13.460;2022-11-15T04:46:16;100849.38;;;3.77;99.66
50550;BME280;36505;52.512;13.460;2022-11-15T04:48:42;100829.94;;;3.67;99.64
50550;BME280;36505;52.512;13.460;2022-11-15T04:51:07;100834.34;;;3.68;99.53
50550;BME280;36505;52.512;13.460;2022-11-15T04:53:33;100835.78;;;3.70;99.56
50550;BME280;36505;52.512;13.460;2022-11-15T04:55:58;100839.84;;;3.81;99.81
50550;BME280;36505;52.512;13.460;2022-11-15T04:58:24;100836.09;;;3.82;99.21
50550;BME280;36505;52.512;13.460;2022-11-15T05:00:49;100836.72;;;3.84;99.17
50550;BME280;36505;52.512;13.460;2022-11-15T05:03:14;100840.91;;;3.86;99.15
50550;BME280;36505;52.512;13.460;2022-11-15T05:05:58;100831.13;;;3.85;99.04
50550;BME280;36505;52.512;13.460;2022-11-15T05:08:24;100843.59;;;3.80;98.78
50550;BME280;36505;52.512;13.460;2022-11-15T05:10:52;100829.81;;;3.75;98.94
50550;BME280;36505;52.512;13.460;2022-11-15T05:13:17;100840.81;;;3.73;99.34
50550;BME280;36505;52.512;13.460;2022-11-15T05:15:43;100842.69;;;3.73;99.34
50550;BME280;36505;52.512;13.460;2022-11-15T05:18:09;100840.63;;;3.75;99.36
50550;BME280;36505;52.512;13.460;2022-11-15T05:20:34;100835.59;;;3.72;99.24
50550;BME280;36505;52.512;13.460;2022-11-15T05:23:00;100837.66;;;3.70;99.33
50550;BME280;36505;52.512;13.460;2022-11-15T05:25:26;100838.97;;;3.74;99.51
50550;BME280;36505;52.512;13.460;2022-11-15T05:27:52;100833.13;;;3.77;99.34
50550;BME280;36505;52.512;13.460;2022-11-15T05:30:17;100836.69;;;3.77;99.09
50550;BME280;36505;52.512;13.460;2022-11-15T05:32:43;100836.91;;;3.82;99.33
50550;BME280;36505;52.512;13.460;2022-11-15T05:35:12;100834.84;;;3.84;98.94
50550;BME280;36505;52.512;13.460;2022-11-15T05:37:40;100829.25;;;3.86;98.98
50550;BME280;36505;52.512;13.460;2022-11-15T05:40:06;100832.56;;;3.81;98.56
50550;BME280;36505;52.512;13.460;2022-11-15T05:42:32;100837.59;;;3.91;98.55
50550;BME280;36505;52.512;13.460;2022-11-15T05:44:58;100833.44;;;3.88;98.20
50550;BME280;36505;52.512;13.460;2022-11-15T05:47:27;100831.94;;;3.86;98.25
50550;BME280;36505;52.512;13.460;2022-11-15T05:49:54;100827.75;;;3.83;98.04
50550;BME280;36505;52.512;13.460;2022-11-15T05:52:22;100845.13;;;3.89;98.15
50550;BME280;36505;52.512;13.460;2022-11-15T05:54:50;100848.06;;;3.94;97.88
50550;BME280;36505;52.512;13.460;2022-11-15T05:57:16;100845.34;;;3.94;97.95
50550;BME280;36505;52.512;13.460;2022-11-15T05:59:42;100840.97;;;3.93;97.82
50550;BME280;36505;52.512;13.460;2022-11-15T06:02:09;100842.00;;;3.92;97.89
50550;BME280;36505;52.512;13.460;2022-11-15T06:04:34;100849.47;;;3.90;97.77
50550;BME280;36505;52.512;13.460;2022-11-15T06:07:00;100849.28;;;3.91;98.05
50550;BME280;36505;52.512;13.460;2022-11-15T06:09:25;100842.19;;;3.90;98.17
50550;BME280;36505;52.512;13.460;2022-11-15T06:11:51;100843.81;;;3.85;98.24
50550;BME280;36505;52.512;13.460;2022-11-15T06:14:16;100849.69;;;3.88;98.11
50550;BME280;36505;52.512;13.460;2022-11-15T06:16:41;100846.97;;;3.88;98.35
50550;BME280;36505;52.512;13.460;2022-11-15T06:19:07;100848.22;;;3.86;98.95
50550;BME280;36505;52.512;13.460;2022-11-15T06:21:33;100856.09;;;3.81;99.34
50550;BME280;36505;52.512;13.460;2022-11-15T06:23:58;100856.28;;;3.79;99.89
50550;BME280;36505;52.512;13.460;2022-11-15T06:26:23;100859.19;;;3.78;99.99
50550;BME280;36505;52.512;13.460;2022-11-15T06:28:49;100857.78;;;3.82;100.00
50550;BME280;36505;52.512;13.460;2022-11-15T06:31:14;100853.13;;;3.76;100.00
50550;BME280;36505;52.512;13.460;2022-11-15T06:33:40;100855.06;;;3.82;100.00
50550;BME280;36505;52.512;13.460;2022-11-15T06:36:08;100854.00;;;3.83;100.00
50550;BME280;36505;52.512;13.460;2022-11-15T06:38:34;100854.66;;;3.85;100.00
50550;BME280;36505;52.512;13.460;2022-11-15T06:41:04;100859.69;;;3.88;100.00
50550;BME280;36505;52.512;13.460;2022-11-15T06:43:30;100858.66;;;3.89;100.00
50550;BME280;36505;52.512;13.460;2022-11-15T06:45:55;100853.00;;;3.90;100.00
50550;BME280;36505;52.512;13.460;2022-11-15T06:48:20;100845.34;;;3.94;100.00
50550;BME280;36505;52.512;13.460;2022-11-15T06:50:53;100859.63;;;4.09;100.00
50550;BME280;36505;52.512;13.460;2022-11-15T06:53:19;100853.19;;;4.17;99.66
50550;BME280;36505;52.512;13.460;2022-11-15T06:55:44;100865.56;;;4.32;99.43
50550;BME280;36505;52.512;13.460;2022-11-15T06:58:10;100866.47;;;4.46;99.07
50550;BME280;36505;52.512;13.460;2022-11-15T07:00:35;100867.81;;;4.63;98.41
50550;BME280;36505;52.512;13.460;2022-11-15T07:03:01;100872.69;;;4.88;97.77
50550;BME280;36505;52.512;13.460;2022-11-15T07:05:27;100862.94;;;5.13;97.22
50550;BME280;36505;52.512;13.460;2022-11-15T07:07:54;100865.06;;;5.37;96.41
50550;BME280;36505;52.512;13.460;2022-11-15T07:10:21;100865.47;;;5.54;94.61
50550;BME280;36505;52.512;13.460;2022-11-15T07:12:53;100863.81;;;5.79;94.12
50550;BME280;36505;52.512;13.460;2022-11-15T07:15:25;100865.88;;;6.10;93.17
50550;BME280;36505;52.512;13.460;2022-11-15T07:17:53;100867.72;;;6.29;91.74
50550;BME280;36505;52.512;13.460;2022-11-15T07:20:19;100873.31;;;6.54;90.39
50550;BME280;36505;52.512;13.460;2022-11-15T07:22:44;100873.63;;;6.71;88.82
50550;BME280;36505;52.512;13.460;2022-11-15T07:25:12;100878.25;;;6.70;88.79
50550;BME280;36505;52.512;13.460;2022-11-15T07:27:38;100869.72;;;6.60;87.06
50550;BME280;36505;52.512;13.460;2022-11-15T07:30:04;100880.88;;;6.46;87.17
50550;BME280;36505;52.512;13.460;2022-11-15T07:32:30;100882.75;;;6.45;87.32
50550;BME280;36505;52.512;13.460;2022-11-15T07:34:55;100871.88;;;6.45;87.19
50550;BME280;36505;52.512;13.460;2022-11-15T07:37:21;100874.16;;;6.48;87.39
50550;BME280;36505;52.512;13.460;2022-11-15T07:39:46;100880.00;;;6.52;87.02
50550;BME280;36505;52.512;13.460;2022-11-15T07:42:11;100878.94;;;6.59;87.20
50550;BME280;36505;52.512;13.460;2022-11-15T07:44:55;100871.56;;;6.66;86.08
50550;BME280;36505;52.512;13.460;2022-11-15T07:47:21;100877.22;;;6.65;85.50
50550;BME280;36505;52.512;13.460;2022-11-15T07:49:46;100873.88;;;6.63;85.88
50550;BME280;36505;52.512;13.460;2022-11-15T07:52:13;100864.03;;;6.68;85.74
50550;BME280;36505;52.512;13.460;2022-11-15T07:54:38;100864.03;;;6.68;85.29
50550;BME280;36505;52.512;13.460;2022-11-15T07:57:04;100864.03;;;6.68;85.57
50550;BME280;36505;52.512;13.460;2022-11-15T07:59:33;100871.47;;;6.86;84.96
50550;BME280;36505;52.512;13.460;2022-11-15T08:01:59;100877.69;;;7.00;84.61
50550;BME280;36505;52.512;13.460;2022-11-15T08:04:25;100864.63;;;7.15;84.42
50550;BME280;36505;52.512;13.460;2022-11-15T08:06:50;100858.25;;;7.28;83.44
50550;BME280;36505;52.512;13.460;2022-11-15T08:09:15;100861.16;;;7.33;83.13
50550;BME280;36505;52.512;13.460;2022-11-15T08:11:41;100856.53;;;7.33;82.92
50550;BME280;36505;52.512;13.460;2022-11-15T08:14:06;100856.47;;;7.40;82.81
50550;BME280;36505;52.512;13.460;2022-11-15T08:16:32;100850.03;;;7.59;82.30
50550;BME280;36505;52.512;13.460;2022-11-15T08:18:57;100855.31;;;7.79;81.70
50550;BME280;36505;52.512;13.460;2022-11-15T08:21:23;100853.09;;;7.94;81.18
50550;BME280;36505;52.512;13.460;2022-11-15T08:23:48;100844.06;;;7.93;80.44
50550;BME280;36505;52.512;13.460;2022-11-15T08:26:14;100853.16;;;8.06;79.89
50550;BME280;36505;52.512;13.460;2022-11-15T08:28:39;100848.72;;;8.11;80.23
50550;BME280;36505;52.512;13.460;2022-11-15T08:31:05;100852.34;;;8.05;80.04
50550;BME280;36505;52.512;13.460;2022-11-15T08:33:31;100860.69;;;8.10;79.65
50550;BME280;36505;52.512;13.460;2022-11-15T08:35:59;100851.91;;;8.08;80.20
50550;BME280;36505;52.512;13.460;2022-11-15T08:38:24;100856.50;;;8.08;80.66
50550;BME280;36505;52.512;13.460;2022-11-15T08:40:52;100848.25;;;8.14;80.64
50550;BME280;36505;52.512;13.460;2022-11-15T08:43:19;100852.94;;;8.32;80.26
50550;BME280;36505;52.512;13.460;2022-11-15T08:45:44;100853.38;;;8.47;79.40
50550;BME280;36505;52.512;13.460;2022-11-15T08:48:10;100840.94;;;8.69;78.92
50550;BME280;36505;52.512;13.460;2022-11-15T08:50:35;100841.31;;;9.03;77.44
50550;BME280;36505;52.512;13.460;2022-11-15T08:53:05;100848.03;;;9.83;74.81
50550;BME280;36505;52.512;13.460;2022-11-15T08:55:31;100843.81;;;10.51;72.11
50550;BME280;36505;52.512;13.460;2022-11-15T08:57:57;100834.66;;;10.97;69.95
50550;BME280;36505;52.512;13.460;2022-11-15T09:00:23;100846.84;;;11.34;68.88
50550;BME280;36505;52.512;13.460;2022-11-15T09:02:48;100845.31;;;11.88;67.33
50550;BME280;36505;52.512;13.460;2022-11-15T09:05:14;100850.09;;;12.32;66.81
50550;BME280;36505;52.512;13.460;2022-11-15T09:07:40;100858.38;;;12.75;64.92
50550;BME280;36505;52.512;13.460;2022-11-15T09:10:06;100850.75;;;13.31;63.98
50550;BME280;36505;52.512;13.460;2022-11-15T09:12:32;100853.63;;;13.73;61.16
50550;BME280;36505;52.512;13.460;2022-11-15T09:14:57;100847.94;;;13.84;61.79
50550;BME280;36505;52.512;13.460;2022-11-15T09:17:23;100852.69;;;14.31;60.91
50550;BME280;36505;52.512;13.460;2022-11-15T09:19:48;100853.69;;;14.62;58.60
50550;BME280;36505;52.512;13.460;2022-11-15T09:22:14;100846.75;;;14.54;59.18
50550;BME280;36505;52.512;13.460;2022-11-15T09:24:39;100835.69;;;14.44;59.31
50550;BME280;36505;52.512;13.460;2022-11-15T09:27:04;100841.97;;;14.97;57.48
50550;BME280;36505;52.512;13.460;2022-11-15T09:29:30;100839.78;;;15.04;57.09
50550;BME280;36505;52.512;13.460;2022-11-15T09:31:55;100842.53;;;14.99;55.71
50550;BME280;36505;52.512;13.460;2022-11-15T09:34:20;100847.88;;;15.46;56.70
50550;BME280;36505;52.512;13.460;2022-11-15T09:36:46;100852.56;;;15.51;54.84
50550;BME280;36505;52.512;13.460;2022-11-15T09:39:12;100840.75;;;15.80;54.49
50550;BME280;36505;52.512;13.460;2022-11-15T09:42:08;100842.66;;;15.90;54.17
50550;BME280;36505;52.512;13.460;2022-11-15T09:50:54;100850.41;;;15.53;54.30
50550;BME280;36505;52.512;13.460;2022-11-15T09:53:58;100851.44;;;15.36;54.75
50550;BME280;36505;52.512;13.460;2022-11-15T09:56:28;100846.53;;;15.54;54.88
50550;BME280;36505;52.512;13.460;2022-11-15T10:04:01;100825.56;;;15.73;54.02
50550;BME280;36505;52.512;13.460;2022-11-15T10:06:27;100821.69;;;15.79;52.97
50550;BME280;36505;52.512;13.460;2022-11-15T10:09:16;100819.75;;;15.85;53.50
50550;BME280;36505;52.512;13.460;2022-11-15T10:11:43;100819.97;;;16.24;53.47
50550;BME280;36505;52.512;13.460;2022-11-15T10:14:15;100822.91;;;16.63;52.10
50550;BME280;36505;52.512;13.460;2022-11-15T10:19:32;100813.75;;;16.67;50.25
50550;BME280;36505;52.512;13.460;2022-11-15T10:22:24;100809.16;;;17.02;50.11
50550;BME280;36505;52.512;13.460;2022-11-15T10:24:58;100793.34;;;17.51;49.26
50550;BME280;36505;52.512;13.460;2022-11-15T10:27:25;100796.41;;;17.11;49.70
50550;BME280;36505;52.512;13.460;2022-11-15T10:29:51;100783.78;;;16.89;50.58
50550;BME280;36505;52.512;13.460;2022-11-15T10:32:19;100783.28;;;16.82;49.88
50550;BME280;36505;52.512;13.460;2022-11-15T10:34:46;100787.81;;;17.12;50.66
50550;BME280;36505;52.512;13.460;2022-11-15T10:37:11;100788.09;;;16.62;50.98
50550;BME280;36505;52.512;13.460;2022-11-15T10:39:37;100784.50;;;16.46;50.97
50550;BME280;36505;52.512;13.460;2022-11-15T10:42:26;100773.97;;;16.63;51.88
50550;BME280;36505;52.512;13.460;2022-11-15T10:44:52;100770.28;;;16.83;51.29
50550;BME280;36505;52.512;13.460;2022-11-15T10:47:22;100771.81;;;16.99;49.78
50550;BME280;36505;52.512;13.460;2022-11-15T10:49:54;100767.28;;;16.74;51.03
50550;BME280;36505;52.512;13.460;2022-11-15T10:52:20;100763.47;;;16.55;51.26
50550;BME280;36505;52.512;13.460;2022-11-15T10:57:33;100751.00;;;15.78;52.79
50550;BME280;36505;52.512;13.460;2022-11-15T11:00:22;100746.34;;;15.48;53.79
50550;BME280;36505;52.512;13.460;2022-11-15T11:03:28;100741.34;;;15.25;53.95
50550;BME280;36505;52.512;13.460;2022-11-15T11:06:11;100743.56;;;15.18;54.62
50550;BME280;36505;52.512;13.460;2022-11-15T11:08:38;100733.31;;;14.78;55.73
50550;BME280;36505;52.512;13.460;2022-11-15T11:11:04;100736.25;;;14.46;57.22
50550;BME280;36505;52.512;13.460;2022-11-15T11:13:35;100730.00;;;14.13;57.89
50550;BME280;36505;52.512;13.460;2022-11-15T11:21:17;100717.06;;;13.62;60.02
50550;BME280;36505;52.512;13.460;2022-11-15T11:23:59;100719.41;;;13.43;60.74
50550;BME280;36505;52.512;13.460;2022-11-15T11:27:04;100721.47;;;13.26;61.78
50550;BME280;36505;52.512;13.460;2022-11-15T11:32:01;100722.56;;;12.98;62.79
50550;BME280;36505;52.512;13.460;2022-11-15T11:34:41;100715.28;;;12.82;63.45
50550;BME280;36505;52.512;13.460;2022-11-15T11:42:53;100718.97;;;12.44;65.51
50550;BME280;36505;52.512;13.460;2022-11-15T11:48:14;100720.00;;;12.38;66.10
50550;BME280;36505;52.512;13.460;2022-11-15T11:50:46;100713.78;;;12.20;66.83
50550;BME280;36505;52.512;13.460;2022-11-15T11:53:15;100712.31;;;12.13;66.67
50550;BME280;36505;52.512;13.460;2022-11-15T11:55:51;100713.63;;;12.10;67.35
50550;BME280;36505;52.512;13.460;2022-11-15T11:58:27;100700.94;;;12.04;67.55
50550;BME280;36505;52.512;13.460;2022-11-15T12:01:00;100714.41;;;12.06;67.96
50550;BME280;36505;52.512;13.460;2022-11-15T12:06:17;100699.78;;;12.00;68.24
50550;BME280;36505;52.512;13.460;2022-11-15T12:09:07;100698.03;;;11.94;68.66
50550;BME280;36505;52.512;13.460;2022-11-15T12:14:45;100687.72;;;11.79;69.22
50550;BME280;36505;52.512;13.460;2022-11-15T12:17:12;100685.38;;;11.71;69.66
50550;BME280;36505;52.512;13.460;2022-11-15T12:19:39;100687.88;;;11.73;69.95
50550;BME280;36505;52.512;13.460;2022-11-15T12:22:13;100684.06;;;11.74;69.81
50550;BME280;36505;52.512;13.460;2022-11-15T12:27:46;100679.06;;;11.71;70.02
50550;BME280;36505;52.512;13.460;2022-11-15T12:30:21;100671.78;;;11.60;70.31
50550;BME280;36505;52.512;13.460;2022-11-15T12:32:54;100669.69;;;11.67;70.41
50550;BME280;36505;52.512;13.460;2022-11-15T12:35:35;100674.59;;;11.65;70.60
50550;BME280;36505;52.512;13.460;2022-11-15T12:38:03;100677.09;;;11.66;70.72
50550;BME280;36505;52.512;13.460;2022-11-15T12:40:36;100672.69;;;11.65;70.88
50550;BME280;36505;52.512;13.460;2022-11-15T12:45:36;100666.03;;;11.61;71.08
50550;BME280;36505;52.512;13.460;2022-11-15T12:58:56;100650.22;;;11.68;71.49
50550;BME280;36505;52.512;13.460;2022-11-15T13:06:51;100634.44;;;11.75;71.22
50550;BME280;36505;52.512;13.460;2022-11-15T13:12:07;100632.50;;;11.76;70.71
50550;BME280;36505;52.512;13.460;2022-11-15T13:18:23;100630.84;;;11.75;71.00
50550;BME280;36505;52.512;13.460;2022-11-15T13:22:45;100629.19;;;11.74;71.03
50550;BME280;36505;52.512;13.460;2022-11-15T13:30:35;100622.72;;;11.80;70.81
50550;BME280;36505;52.512;13.460;2022-11-15T13:33:09;100620.22;;;11.78;70.52
50550;BME280;36505;52.512;13.460;2022-11-15T13:35:40;100623.69;;;11.74;71.08
50550;BME280;36505;52.512;13.460;2022-11-15T13:38:17;100614.06;;;11.71;71.03
50550;BME280;36505;52.512;13.460;2022-11-15T13:40:43;100615.97;;;11.71;71.19
50550;BME280;36505;52.512;13.460;2022-11-15T13:48:44;100623.78;;;11.79;71.13
50550;BME280;36505;52.512;13.460;2022-11-15T13:51:21;100625.75;;;11.83;71.28
50550;BME280;36505;52.512;13.460;2022-11-15T13:53:54;100623.84;;;11.84;71.29
50550;BME280;36505;52.512;13.460;2022-11-15T13:56:21;100612.97;;;11.72;71.46
50550;BME280;36505;52.512;13.460;2022-11-15T13:58:47;100618.22;;;11.74;71.60
50550;BME280;36505;52.512;13.460;2022-11-15T14:01:18;100616.41;;;11.79;71.81
50550;BME280;36505;52.512;13.460;2022-11-15T14:03:56;100612.53;;;11.80;71.60
50550;BME280;36505;52.512;13.460;2022-11-15T14:06:24;100610.91;;;11.79;71.55
50550;BME280;36505;52.512;13.460;2022-11-15T14:11:34;100619.78;;;11.70;71.94
50550;BME280;36505;52.512;13.460;2022-11-15T14:16:47;100630.38;;;11.61;72.55
50550;BME280;36505;52.512;13.460;2022-11-15T14:19:34;100632.81;;;11.58;72.66
50550;BME280;36505;52.512;13.460;2022-11-15T14:22:16;100631.13;;;11.57;72.86
50550;BME280;36505;52.512;13.460;2022-11-15T14:24:45;100618.94;;;11.47;72.96
50550;BME280;36505;52.512;13.460;2022-11-15T14:29:43;100633.28;;;11.55;72.93
50550;BME280;36505;52.512;13.460;2022-11-15T14:32:18;100615.94;;;11.49;73.23
50550;BME280;36505;52.512;13.460;2022-11-15T14:34:44;100614.53;;;11.46;73.53
50550;BME280;36505;52.512;13.460;2022-11-15T14:39:47;100613.41;;;11.42;73.91
50550;BME280;36505;52.512;13.460;2022-11-15T14:42:12;100607.00;;;11.37;74.39
50550;BME280;36505;52.512;13.460;2022-11-15T14:44:38;100599.81;;;11.31;74.54
50550;BME280;36505;52.512;13.460;2022-11-15T14:47:03;100601.13;;;11.28;74.93
50550;BME280;36505;52.512;13.460;2022-11-15T14:49:29;100613.09;;;11.22;75.11
50550;BME280;36505;52.512;13.460;2022-11-15T14:51:54;100603.47;;;11.20;75.63
50550;BME280;36505;52.512;13.460;2022-11-15T14:54:19;100584.38;;;11.08;75.71